createdAt,value
2023-04-15T00:01:47.612Z,98931.69
2023-04-15T00:04:15.531Z,98926.25
2023-04-15T00:06:43.578Z,98932.06
2023-04-15T00:09:11.351Z,98928.91
2023-04-15T00:11:39.012Z,98926.84
2023-04-15T00:14:08.023Z,98928.31
2023-04-15T00:16:35.743Z,98928.63
2023-04-15T00:19:03.601Z,98931.00
2023-04-15T00:21:32.475Z,98927.47
2023-04-15T00:24:00.222Z,98926.81
2023-04-15T00:26:28.461Z,98929.13
2023-04-15T00:28:56.933Z,98922.41
2023-04-15T00:31:26.007Z,98917.97
2023-04-15T00:33:53.716Z,98917.31
2023-04-15T00:36:23.274Z,98916.88
2023-04-15T00:38:51.403Z,98916.09
2023-04-15T00:41:20.910Z,98914.47
2023-04-15T00:43:48.883Z,98913.63
2023-04-15T00:46:18.284Z,98912.81
2023-04-15T00:48:48.056Z,98904.53
2023-04-15T00:51:15.705Z,98909.31
2023-04-15T00:53:43.695Z,98910.72
2023-04-15T00:56:11.352Z,98903.88
2023-04-15T00:58:39.060Z,98901.06
2023-04-15T01:01:06.793Z,98899.03
2023-04-15T01:03:34.740Z,98904.03
2023-04-15T01:06:04.577Z,98911.75
2023-04-15T01:08:32.405Z,98911.59
2023-04-15T01:11:03.399Z,98905.69
2023-04-15T01:13:32.278Z,98867.53
2023-04-15T01:15:59.914Z,98901.81
2023-04-15T01:18:28.157Z,98908.44
2023-04-15T01:20:56.378Z,98884.53
2023-04-15T01:23:26.928Z,98904.44
2023-04-15T01:25:57.313Z,98911.78
2023-04-15T01:28:25.356Z,98912.44
2023-04-15T01:31:07.404Z,98912.25
2023-04-15T01:33:38.087Z,98910.91
2023-04-15T01:36:07.063Z,98877.50
2023-04-15T01:38:35.082Z,98902.63
2023-04-15T01:41:04.710Z,98908.84
2023-04-15T01:43:32.422Z,98910.66
2023-04-15T01:45:59.990Z,98905.13
2023-04-15T01:48:27.548Z,98905.91
2023-04-15T01:50:57.509Z,98909.81
2023-04-15T01:53:25.735Z,98907.34
2023-04-15T01:55:53.693Z,98909.56
2023-04-15T01:58:23.025Z,98909.78
2023-04-15T02:00:50.655Z,98915.66
2023-04-15T02:03:18.638Z,98915.22
2023-04-15T02:05:46.370Z,98916.31
2023-04-15T02:08:14.431Z,98914.38
2023-04-15T02:10:42.018Z,98908.50
2023-04-15T02:13:10.802Z,98907.22
2023-04-15T02:15:39.723Z,98909.00
2023-04-15T02:18:07.449Z,98908.63
2023-04-15T02:20:36.287Z,98915.94
2023-04-15T02:23:07.231Z,98910.50
2023-04-15T02:25:34.876Z,98912.78
2023-04-15T02:28:06.180Z,98915.91
2023-04-15T02:30:33.891Z,98913.19
2023-04-15T02:33:05.088Z,98915.47
2023-04-15T02:35:32.821Z,98916.59
2023-04-15T02:38:00.968Z,98916.16
2023-04-15T02:40:28.674Z,98921.81
2023-04-15T02:42:56.466Z,98914.38
2023-04-15T02:45:27.483Z,98925.09
2023-04-15T02:47:55.313Z,98929.84
2023-04-15T02:50:25.561Z,98921.59
2023-04-15T02:52:53.229Z,98921.97
2023-04-15T02:55:21.036Z,98928.13
2023-04-15T02:57:48.898Z,98922.19
2023-04-15T03:00:16.712Z,98929.84
2023-04-15T03:02:47.786Z,98876.41
2023-04-15T03:05:16.171Z,98918.47
2023-04-15T03:07:51.166Z,98919.66
2023-04-15T03:10:19.947Z,98923.25
2023-04-15T03:12:48.178Z,98927.56
2023-04-15T03:15:21.162Z,98929.41
2023-04-15T03:17:51.825Z,98936.00
2023-04-15T03:20:19.764Z,98929.41
2023-04-15T03:22:48.834Z,98931.34
2023-04-15T03:25:18.089Z,98929.00
2023-04-15T03:27:45.995Z,98921.19
2023-04-15T03:30:14.840Z,98924.88
2023-04-15T03:32:42.636Z,98922.38
2023-04-15T03:35:10.689Z,98923.59
2023-04-15T03:37:38.576Z,98925.31
2023-04-15T03:40:07.442Z,98925.03
2023-04-15T03:42:36.490Z,98926.28
2023-04-15T03:45:04.500Z,98919.53
2023-04-15T03:47:32.188Z,98917.50
2023-04-15T03:49:59.871Z,98917.16
2023-04-15T03:52:27.507Z,98921.00
2023-04-15T03:54:55.079Z,98917.59
2023-04-15T03:57:22.684Z,98913.16
2023-04-15T03:59:51.645Z,98915.09
2023-04-15T04:02:19.389Z,98912.94
2023-04-15T04:04:47.211Z,98912.78
2023-04-15T04:07:16.800Z,98912.38
2023-04-15T04:09:46.684Z,98906.63
2023-04-15T04:12:14.906Z,98914.34
2023-04-15T04:14:42.560Z,98913.94
2023-04-15T04:17:11.637Z,98910.34
2023-04-15T04:19:39.293Z,98920.53
2023-04-15T04:22:07.377Z,98916.66
2023-04-15T04:24:35.265Z,98924.09
2023-04-15T04:27:03.021Z,98925.66
2023-04-15T04:29:30.691Z,98920.19
2023-04-15T04:31:58.393Z,98917.38
2023-04-15T04:34:27.553Z,98932.25
2023-04-15T04:36:55.134Z,98932.25
2023-04-15T04:39:22.830Z,98927.59
2023-04-15T04:41:52.109Z,98922.59
2023-04-15T04:44:19.757Z,98928.81
2023-04-15T04:46:47.375Z,98935.47
2023-04-15T04:49:15.025Z,98932.13
2023-04-15T04:51:43.979Z,98935.00
2023-04-15T04:54:11.773Z,98941.88
2023-04-15T04:56:39.770Z,98936.50
2023-04-15T04:59:07.700Z,98934.06
2023-04-15T05:01:35.440Z,98939.13
2023-04-15T05:04:05.057Z,98943.38
2023-04-15T05:06:33.002Z,98941.34
2023-04-15T05:09:03.262Z,98946.78
2023-04-15T05:11:31.354Z,98946.78
2023-04-15T05:13:59.770Z,98944.06
2023-04-15T05:16:27.539Z,98945.75
2023-04-15T05:18:55.207Z,98947.81
2023-04-15T05:21:22.977Z,98941.50
2023-04-15T05:23:50.724Z,98945.97
2023-04-15T05:26:19.751Z,98954.91
2023-04-15T05:28:47.856Z,98952.53
2023-04-15T05:31:15.598Z,98957.84
2023-04-15T05:33:43.955Z,98945.53
2023-04-15T05:36:12.041Z,98950.81
2023-04-15T05:38:39.641Z,98948.59
2023-04-15T05:41:07.410Z,98947.31
2023-04-15T05:43:36.573Z,98945.91
2023-04-15T05:46:04.403Z,98948.00
2023-04-15T05:48:32.163Z,98945.38
2023-04-15T05:51:00.042Z,98880.41
2023-04-15T05:53:27.825Z,98954.34
2023-04-15T05:55:55.719Z,98954.31
2023-04-15T05:58:23.377Z,98960.34
2023-04-15T06:00:52.503Z,98963.19
2023-04-15T06:03:20.678Z,98963.03
2023-04-15T06:05:48.450Z,98961.59
2023-04-15T06:08:16.045Z,98963.00
2023-04-15T06:10:43.675Z,98958.03
2023-04-15T06:13:11.271Z,98967.63
2023-04-15T06:15:38.891Z,98976.66
2023-04-15T06:18:07.862Z,98978.41
2023-04-15T06:20:36.562Z,98983.31
2023-04-15T06:23:04.621Z,98993.31
2023-04-15T06:25:32.231Z,98988.69
2023-04-15T06:28:00.387Z,99006.22
2023-04-15T06:30:28.003Z,99006.50
2023-04-15T06:32:56.385Z,99009.66
2023-04-15T06:35:25.396Z,99005.84
2023-04-15T06:37:52.956Z,98998.16
2023-04-15T06:40:20.599Z,98988.44
2023-04-15T06:42:48.246Z,98992.00
2023-04-15T06:45:17.084Z,98994.94
2023-04-15T06:47:44.688Z,98994.34
2023-04-15T06:50:12.409Z,98995.97
2023-04-15T06:52:41.660Z,98990.00
2023-04-15T06:55:09.984Z,98993.34
2023-04-15T06:57:37.565Z,98986.47
2023-04-15T07:00:05.825Z,99001.09
2023-04-15T07:02:33.574Z,99007.31
2023-04-15T07:05:01.593Z,99001.50
2023-04-15T07:07:29.244Z,99004.63
2023-04-15T07:09:58.227Z,99005.41
2023-04-15T07:12:25.918Z,99006.97
2023-04-15T07:14:53.543Z,99006.97
2023-04-15T07:17:21.516Z,98995.69
2023-04-15T07:19:49.241Z,98994.06
2023-04-15T07:22:16.974Z,98999.53
2023-04-15T07:24:44.680Z,98994.13
2023-04-15T07:27:13.620Z,98997.59
2023-04-15T07:29:41.306Z,98994.91
2023-04-15T07:32:10.444Z,98988.22
2023-04-15T07:34:38.481Z,98997.66
2023-04-15T07:37:06.501Z,98998.81
2023-04-15T07:39:34.140Z,98999.19
2023-04-15T07:42:01.951Z,99002.28
2023-04-15T07:44:31.605Z,99001.84
2023-04-15T07:46:59.223Z,99004.53
2023-04-15T07:49:27.148Z,99006.13
2023-04-15T07:51:54.847Z,99002.16
2023-04-15T07:54:22.398Z,99006.47
2023-04-15T07:56:50.465Z,99009.13
2023-04-15T07:59:18.708Z,99014.97
2023-04-15T08:01:47.768Z,99012.81
2023-04-15T08:04:15.818Z,99008.47
2023-04-15T08:06:43.989Z,99012.00
2023-04-15T08:09:11.953Z,99011.19
2023-04-15T08:11:39.548Z,99013.97
2023-04-15T08:14:07.179Z,99003.50
2023-04-15T08:16:35.182Z,99008.44
2023-04-15T08:19:04.688Z,99011.91
2023-04-15T08:21:32.685Z,99006.91
2023-04-15T08:24:01.604Z,99010.66
2023-04-15T08:26:29.285Z,99016.50
2023-04-15T08:28:57.272Z,99015.28
2023-04-15T08:31:27.845Z,99012.22
2023-04-15T08:33:56.828Z,99014.00
2023-04-15T08:36:27.088Z,99014.31
2023-04-15T08:38:54.733Z,99024.28
2023-04-15T08:41:24.284Z,99020.47
2023-04-15T08:43:57.879Z,99021.47
2023-04-15T08:46:26.040Z,99025.88
2023-04-15T08:48:57.550Z,99024.06
2023-04-15T08:51:27.565Z,99029.34
2023-04-15T08:53:55.778Z,99024.22
2023-04-15T08:56:26.532Z,99024.63
2023-04-15T08:58:54.615Z,99022.88
2023-04-15T09:01:22.601Z,99022.72
2023-04-15T09:03:51.457Z,99029.63
2023-04-15T09:06:19.532Z,99031.84
2023-04-15T09:08:48.578Z,99001.25
2023-04-15T09:11:19.447Z,99023.63
2023-04-15T09:13:48.268Z,99038.31
2023-04-15T09:16:16.003Z,99033.78
2023-04-15T09:18:44.347Z,99031.56
2023-04-15T09:21:14.469Z,99032.06
2023-04-15T09:23:54.657Z,99030.94
2023-04-15T09:26:32.811Z,99039.88
2023-04-15T09:29:06.465Z,99030.00
2023-04-15T09:31:34.323Z,99034.13
2023-04-15T09:34:02.905Z,99037.81
2023-04-15T09:36:30.852Z,99040.69
2023-04-15T09:38:59.658Z,99041.22
2023-04-15T09:41:28.468Z,99043.63
2023-04-15T09:43:57.514Z,99053.13
2023-04-15T09:46:43.317Z,99059.22
2023-04-15T09:49:11.950Z,99042.81
2023-04-15T09:51:40.179Z,99058.50
2023-04-15T09:54:08.254Z,99058.16
2023-04-15T09:56:36.200Z,99065.91
2023-04-15T09:59:06.930Z,99067.34
2023-04-15T10:01:35.129Z,99067.16
2023-04-15T10:04:05.559Z,99065.59
2023-04-15T10:06:34.663Z,99054.31
2023-04-15T10:09:02.793Z,99060.31
2023-04-15T10:11:31.808Z,99064.81
2023-04-15T10:14:00.324Z,99061.31
2023-04-15T10:16:30.318Z,99069.84
2023-04-15T10:18:59.328Z,99078.59
2023-04-15T10:21:29.556Z,99050.75
2023-04-15T10:23:58.413Z,99081.34
2023-04-15T10:26:26.351Z,99081.97
2023-04-15T10:28:54.753Z,99080.56
2023-04-15T10:31:22.710Z,99083.34
2023-04-15T10:33:53.021Z,99079.09
2023-04-15T10:36:21.325Z,99086.66
2023-04-15T10:38:48.859Z,99075.38
2023-04-15T10:41:20.498Z,99087.34
2023-04-15T10:43:51.358Z,99091.31
2023-04-15T10:46:21.712Z,99091.25
2023-04-15T10:48:52.349Z,99094.38
2023-04-15T10:51:29.187Z,99086.00
2023-04-15T10:54:00.715Z,99106.41
2023-04-15T10:56:30.047Z,99098.25
2023-04-15T10:59:00.217Z,99108.19
2023-04-15T11:01:51.509Z,99118.69
2023-04-15T11:04:54.039Z,99102.59
2023-04-15T11:07:37.750Z,99120.59
2023-04-15T11:10:28.896Z,99112.34
2023-04-15T11:12:59.195Z,99113.41
2023-04-15T11:15:31.002Z,99113.25
2023-04-15T11:18:00.083Z,99115.97
2023-04-15T11:20:29.174Z,99118.56
2023-04-15T11:23:14.495Z,99123.19
2023-04-15T11:25:44.002Z,99129.59
2023-04-15T11:28:13.027Z,99128.28
2023-04-15T11:30:41.541Z,99128.63
2023-04-15T11:33:12.062Z,99132.50
2023-04-15T11:35:42.033Z,99129.09
2023-04-15T11:38:11.795Z,99136.75
2023-04-15T11:40:40.433Z,99131.75
2023-04-15T11:43:09.560Z,99141.03
2023-04-15T11:45:38.384Z,99131.34
2023-04-15T11:48:07.730Z,99143.56
2023-04-15T11:50:35.815Z,99146.84
2023-04-15T11:53:08.670Z,99145.00
2023-04-15T11:55:44.265Z,99141.25
2023-04-15T11:58:15.155Z,99152.84
2023-04-15T12:00:48.650Z,99136.91
2023-04-15T12:03:20.045Z,99143.28
2023-04-15T12:06:11.530Z,99145.16
2023-04-15T12:09:04.680Z,99140.16
2023-04-15T12:11:35.194Z,99147.69
2023-04-15T12:14:09.303Z,99143.59
2023-04-15T12:16:47.816Z,99150.41
2023-04-15T12:19:18.771Z,99141.53
2023-04-15T12:21:48.807Z,99148.63
2023-04-15T12:24:22.594Z,99146.19
2023-04-15T12:26:51.885Z,99146.97
2023-04-15T12:29:19.926Z,99150.44
2023-04-15T12:31:49.861Z,99125.09
2023-04-15T12:34:17.707Z,99158.59
2023-04-15T12:36:45.279Z,99148.34
2023-04-15T12:39:12.889Z,99159.25
2023-04-15T12:41:42.210Z,99169.13
2023-04-15T12:44:09.997Z,99168.03
2023-04-15T12:46:37.701Z,99173.50
2023-04-15T12:49:05.355Z,99179.63
2023-04-15T12:51:33.018Z,99176.25
2023-04-15T12:54:00.900Z,99178.00
2023-04-15T12:56:28.721Z,99182.38
2023-04-15T12:58:57.690Z,99177.94
2023-04-15T13:01:26.486Z,99173.97
2023-04-15T13:03:54.228Z,99186.06
2023-04-15T13:06:22.485Z,99185.47
2023-04-15T13:08:58.369Z,99192.50
2023-04-15T13:11:27.201Z,99196.06
2023-04-15T13:13:54.824Z,99220.56
2023-04-15T13:16:23.845Z,99212.19
2023-04-15T13:18:51.668Z,99205.28
2023-04-15T13:21:19.917Z,99215.22
2023-04-15T13:23:47.565Z,99173.22
2023-04-15T13:26:15.529Z,99219.88
2023-04-15T13:28:43.171Z,99217.00
2023-04-15T13:31:10.904Z,99231.94
2023-04-15T13:33:39.930Z,99246.22
2023-04-15T13:36:07.949Z,99241.81
2023-04-15T13:38:35.595Z,99248.06
2023-04-15T13:41:03.777Z,99246.28
2023-04-15T13:43:31.661Z,99249.25
2023-04-15T13:45:59.334Z,99247.75
2023-04-15T13:48:26.973Z,99246.59
2023-04-15T13:50:55.950Z,99247.31
2023-04-15T13:53:33.919Z,99252.91
2023-04-15T13:56:07.417Z,99242.47
2023-04-15T13:58:35.142Z,99256.94
2023-04-15T14:01:05.190Z,99263.59
2023-04-15T14:03:34.382Z,99261.72
2023-04-15T14:06:03.616Z,99271.22
2023-04-15T14:08:31.733Z,99254.09
2023-04-15T14:10:59.475Z,99273.91
2023-04-15T14:13:27.324Z,99281.13
2023-04-15T14:15:54.974Z,99284.81
2023-04-15T14:18:22.634Z,99285.41
2023-04-15T14:20:50.272Z,99292.66
2023-04-15T14:23:19.269Z,99289.19
2023-04-15T14:25:48.316Z,99301.53
2023-04-15T14:28:16.389Z,99308.16
2023-04-15T14:30:44.690Z,99318.19
2023-04-15T14:33:12.322Z,99315.34
2023-04-15T14:35:40.115Z,99323.97
2023-04-15T14:38:10.553Z,99328.75
2023-04-15T14:40:39.938Z,99330.03
2023-04-15T14:43:07.588Z,99340.28
2023-04-15T14:45:36.276Z,99349.19
2023-04-15T14:48:04.152Z,99342.72
2023-04-15T14:50:31.873Z,99345.09
2023-04-15T14:52:59.592Z,99350.00
2023-04-15T14:55:27.200Z,99354.59
2023-04-15T14:57:56.699Z,99357.06
2023-04-15T15:00:24.358Z,99357.94
2023-04-15T15:02:52.055Z,99367.78
2023-04-15T15:05:19.838Z,99368.03
2023-04-15T15:07:48.798Z,99371.72
2023-04-15T15:10:16.391Z,99373.31
2023-04-15T15:13:03.518Z,99378.75
2023-04-15T15:15:31.252Z,99378.03
2023-04-15T15:17:59.075Z,99385.94
2023-04-15T15:20:26.823Z,99392.25
2023-04-15T15:22:54.732Z,99393.81
2023-04-15T15:25:22.571Z,99396.97
2023-04-15T15:27:50.416Z,99391.59
2023-04-15T15:30:19.485Z,99398.69
2023-04-15T15:32:47.118Z,99395.88
2023-04-15T15:35:14.880Z,99407.28
2023-04-15T15:37:43.303Z,99405.69
2023-04-15T15:40:12.087Z,99407.31
2023-04-15T15:42:40.136Z,99410.50
2023-04-15T15:45:08.493Z,99418.38
2023-04-15T15:47:37.525Z,99423.50
2023-04-15T15:50:06.340Z,99429.06
2023-04-15T15:52:34.200Z,99431.44
2023-04-15T15:55:01.929Z,99436.56
2023-04-15T15:57:29.548Z,99437.34
2023-04-15T16:00:07.911Z,99444.44
2023-04-15T16:05:10.038Z,99438.16
2023-04-15T16:07:37.657Z,99457.00
2023-04-15T16:10:06.048Z,99460.16
2023-04-15T16:12:34.944Z,99463.28
2023-04-15T16:15:02.913Z,99465.66
2023-04-15T16:17:30.701Z,99463.72
2023-04-15T16:20:00.881Z,99468.72
2023-04-15T16:22:28.942Z,99478.06
2023-04-15T16:24:56.549Z,99480.13
2023-04-15T16:27:24.166Z,99474.66
2023-04-15T16:29:51.793Z,99478.19
2023-04-15T16:32:19.489Z,99484.47
2023-04-15T16:34:47.224Z,99486.69
2023-04-15T16:37:16.408Z,99489.81
2023-04-15T16:39:44.067Z,99489.03
2023-04-15T16:42:11.738Z,99493.34
2023-04-15T16:44:39.752Z,99492.19
2023-04-15T16:47:08.913Z,99504.78
2023-04-15T16:49:36.540Z,99503.16
2023-04-15T16:52:04.203Z,99505.53
2023-04-15T16:54:34.873Z,99506.25
2023-04-15T16:57:03.639Z,99508.19
2023-04-15T16:59:31.497Z,99516.34
2023-04-15T17:01:59.277Z,99520.69
2023-04-15T17:04:28.964Z,99525.81
2023-04-15T17:06:56.724Z,99521.03
2023-04-15T17:09:24.362Z,99520.66
2023-04-15T17:11:53.358Z,99526.59
2023-04-15T17:14:20.983Z,99535.50
2023-04-15T17:16:48.611Z,99529.59
2023-04-15T17:19:16.242Z,99538.28
2023-04-15T17:21:43.875Z,99529.53
2023-04-15T17:24:11.511Z,99538.19
2023-04-15T17:26:39.285Z,99540.53
2023-04-15T17:29:08.406Z,99545.28
2023-04-15T17:31:36.226Z,99548.84
2023-04-15T17:34:09.793Z,99548.34
2023-04-15T17:36:38.658Z,99552.28
2023-04-15T17:39:06.464Z,99552.28
2023-04-15T17:41:34.366Z,99556.97
2023-04-15T17:44:02.009Z,99561.25
2023-04-15T17:46:31.836Z,99560.94
2023-04-15T17:48:59.490Z,99566.75
2023-04-15T17:51:28.011Z,99571.78
2023-04-15T17:54:07.586Z,99575.78
2023-04-15T17:56:35.676Z,99580.78
2023-04-15T17:59:03.471Z,99589.78
2023-04-15T18:01:32.503Z,99584.25
2023-04-15T18:04:00.493Z,99587.00
2023-04-15T18:06:28.330Z,99590.59
2023-04-15T18:08:56.119Z,99593.31
2023-04-15T18:11:23.732Z,99595.69
2023-04-15T18:13:51.422Z,99602.28
2023-04-15T18:16:19.464Z,99608.94
2023-04-15T18:18:48.681Z,99613.25
2023-04-15T18:21:16.377Z,99612.38
2023-04-15T18:23:44.050Z,99610.44
2023-04-15T18:26:11.657Z,99617.09
2023-04-15T18:28:39.785Z,99613.59
2023-04-15T18:31:07.567Z,99625.00
2023-04-15T18:33:35.865Z,99600.97
2023-04-15T18:36:05.015Z,99625.00
2023-04-15T18:38:32.791Z,99632.41
2023-04-15T18:41:00.700Z,99632.00
2023-04-15T18:43:28.399Z,99638.31
2023-04-15T18:45:56.191Z,99642.63
2023-04-15T18:48:23.854Z,99650.53
2023-04-15T18:50:54.230Z,99659.13
2023-04-15T18:53:23.254Z,99655.97
2023-04-15T18:55:50.863Z,99655.97
2023-04-15T18:58:18.466Z,99652.34
2023-04-15T19:00:46.145Z,99663.84
2023-04-15T19:03:13.856Z,99667.28
2023-04-15T19:05:41.749Z,99670.47
2023-04-15T19:08:09.536Z,99663.84
2023-04-15T19:10:38.986Z,99666.91
2023-04-15T19:13:07.568Z,99671.66
2023-04-15T19:15:35.396Z,99680.72
2023-04-15T19:18:05.108Z,99682.59
2023-04-15T19:20:35.704Z,99682.63
2023-04-15T19:23:05.530Z,99686.22
2023-04-15T19:25:33.477Z,99692.13
2023-04-15T19:28:02.434Z,99701.34
2023-04-15T19:30:32.265Z,99697.44
2023-04-15T19:33:00.012Z,99699.78
2023-04-15T19:35:27.691Z,99700.59
2023-04-15T19:37:55.866Z,99703.38
2023-04-15T19:40:23.457Z,99704.09
2023-04-15T19:42:51.090Z,99712.00
2023-04-15T19:45:20.185Z,99704.50
2023-04-15T19:47:47.967Z,99715.16
2023-04-15T19:50:16.873Z,99720.94
2023-04-15T19:52:44.758Z,99700.44
2023-04-15T19:55:12.474Z,99724.22
2023-04-15T19:57:40.085Z,99714.81
2023-04-15T20:00:09.390Z,99717.94
2023-04-15T20:02:38.468Z,99724.16
2023-04-15T20:05:09.631Z,99720.44
2023-04-15T20:07:37.331Z,99722.31
2023-04-15T20:10:11.990Z,99728.69
2023-04-15T20:12:49.256Z,99720.41
2023-04-15T20:15:20.797Z,99728.03
2023-04-15T20:17:50.054Z,99728.25
2023-04-15T20:20:18.255Z,99732.13
2023-04-15T20:22:46.023Z,99727.75
2023-04-15T20:25:13.657Z,99727.72
2023-04-15T20:27:41.622Z,99723.03
2023-04-15T20:30:10.346Z,99727.72
2023-04-15T20:32:38.664Z,99737.47
2023-04-15T20:35:08.638Z,99718.56
2023-04-15T20:37:40.270Z,99734.78
2023-04-15T20:40:09.067Z,99735.94
2023-04-15T20:42:36.767Z,99737.91
2023-04-15T20:45:06.967Z,99734.41
2023-04-15T20:47:34.554Z,99737.94
2023-04-15T20:50:02.341Z,99738.38
2023-04-15T20:52:31.309Z,99745.00
2023-04-15T20:54:58.890Z,99737.81
2023-04-15T20:57:26.562Z,99740.69
2023-04-15T20:59:54.159Z,99741.06
2023-04-15T21:02:23.652Z,99750.03
2023-04-15T21:04:51.445Z,99754.31
2023-04-15T21:07:19.031Z,99751.94
2023-04-15T21:09:48.276Z,99757.06
2023-04-15T21:12:16.119Z,99755.56
2023-04-15T21:14:43.858Z,99759.38
2023-04-15T21:17:11.782Z,99759.06
2023-04-15T21:19:40.262Z,99759.06
2023-04-15T21:22:07.871Z,99767.72
2023-04-15T21:24:35.460Z,99768.50
2023-04-15T21:27:04.546Z,99771.97
2023-04-15T21:29:32.190Z,99769.94
2023-04-15T21:31:59.857Z,99770.78
2023-04-15T21:34:27.586Z,99781.03
2023-04-15T21:36:55.652Z,99792.31
2023-04-15T21:39:23.213Z,99782.94
2023-04-15T21:41:50.946Z,99786.47
2023-04-15T21:44:19.923Z,99790.00
2023-04-15T21:46:47.735Z,99791.97
2023-04-15T21:49:15.968Z,99793.50
2023-04-15T21:51:44.081Z,99799.06
2023-04-15T21:54:11.697Z,99788.88
2023-04-15T21:56:39.366Z,99799.84
2023-04-15T21:59:07.166Z,99799.06
2023-04-15T22:01:36.382Z,99799.53
2023-04-15T22:04:05.844Z,99807.25
2023-04-15T22:06:33.603Z,99804.97
2023-04-15T22:09:01.388Z,99817.13
2023-04-15T22:11:30.633Z,99813.16
2023-04-15T22:13:58.697Z,99813.97
2023-04-15T22:16:26.860Z,99811.13
2023-04-15T22:18:56.802Z,99788.41
2023-04-15T22:21:24.473Z,99819.31
2023-04-15T22:23:52.329Z,99797.97
2023-04-15T22:26:20.913Z,99824.84
2023-04-15T22:28:48.570Z,99826.84
2023-04-15T22:31:16.183Z,99831.94
2023-04-15T22:33:43.836Z,99827.16
2023-04-15T22:36:13.491Z,99836.56
2023-04-15T22:38:41.172Z,99839.69
2023-04-15T22:41:08.779Z,99841.59
2023-04-15T22:43:36.421Z,99845.88
2023-04-15T22:46:04.029Z,99849.81
2023-04-15T22:48:31.787Z,99851.41
2023-04-15T22:50:59.594Z,99857.69
2023-04-15T22:53:28.788Z,99857.31
2023-04-15T22:55:56.416Z,99862.84
2023-04-15T22:58:24.467Z,99867.13
2023-04-15T23:00:52.079Z,99860.84
2023-04-15T23:03:19.772Z,99868.53
2023-04-15T23:05:47.487Z,99870.84
2023-04-15T23:08:15.068Z,99864.22
2023-04-15T23:10:44.606Z,99870.50
2023-04-15T23:13:12.215Z,99873.25
2023-04-15T23:15:39.876Z,99875.47
2023-04-15T23:18:07.553Z,99876.59
2023-04-15T23:20:35.260Z,99874.69
2023-04-15T23:23:03.069Z,99874.78
2023-04-15T23:25:30.834Z,99877.59
2023-04-15T23:27:59.766Z,99877.88
2023-04-15T23:30:27.398Z,99879.91
2023-04-15T23:32:55.143Z,99884.16
2023-04-15T23:35:22.970Z,99874.25
2023-04-15T23:37:50.740Z,99882.50
2023-04-15T23:40:18.630Z,99880.16
2023-04-15T23:42:46.456Z,99873.41
2023-04-15T23:45:15.426Z,99884.00
2023-04-15T23:47:43.094Z,99878.56
2023-04-15T23:50:11.700Z,99883.97
2023-04-15T23:52:39.387Z,99889.44
2023-04-15T23:55:07.997Z,99886.03
2023-04-15T23:57:35.647Z,99882.84
